sensor_id;sensor_type;location;lat;lon;timestamp;pressure;altitude;pressure_sealevel;temperature;humidity
62833;BME280;48891;49.220;6.920;2023-11-19T00:02:08;98883.53;;;12.35;69.96
62833;BME280;48891;49.220;6.920;2023-11-19T00:04:37;98880.03;;;12.34;70.21
62833;BME280;48891;49.220;6.920;2023-11-19T00:07:03;98870.41;;;12.33;70.25
62833;BME280;48891;49.220;6.920;2023-11-19T00:09:28;98866.91;;;12.33;70.35
62833;BME280;48891;49.220;6.920;2023-11-19T00:11:53;98870.41;;;12.33;69.96
62833;BME280;48891;49.220;6.920;2023-11-19T00:14:18;98870.47;;;12.32;70.24
62833;BME280;48891;49.220;6.920;2023-11-19T00:16:44;98872.19;;;12.33;70.27
62833;BME280;48891;49.220;6.920;2023-11-19T00:19:09;98870.41;;;12.33;70.43
62833;BME280;48891;49.220;6.920;2023-11-19T00:21:34;98866.91;;;12.33;70.32
62833;BME280;48891;49.220;6.920;2023-11-19T00:23:59;98864.19;;;12.34;70.28
62833;BME280;48891;49.220;6.920;2023-11-19T00:26:24;98868.59;;;12.34;70.23
62833;BME280;48891;49.220;6.920;2023-11-19T00:28:50;98864.09;;;12.36;70.45
62833;BME280;48891;49.220;6.920;2023-11-19T00:31:15;98855.59;;;12.31;70.30
62833;BME280;48891;49.220;6.920;2023-11-19T00:33:40;98853.59;;;12.34;70.26
62833;BME280;48891;49.220;6.920;2023-11-19T00:36:06;98854.44;;;12.35;70.41
62833;BME280;48891;49.220;6.920;2023-11-19T00:38:31;98852.72;;;12.34;70.61
62833;BME280;48891;49.220;6.920;2023-11-19T00:40:56;98860.56;;;12.35;70.45
62833;BME280;48891;49.220;6.920;2023-11-19T00:43:21;98880.88;;;12.35;70.42
62833;BME280;48891;49.220;6.920;2023-11-19T00:45:47;98879.06;;;12.35;70.54
62833;BME280;48891;49.220;6.920;2023-11-19T00:48:12;98869.38;;;12.36;70.61
62833;BME280;48891;49.220;6.920;2023-11-19T00:50:37;98867.66;;;12.35;70.72
62833;BME280;48891;49.220;6.920;2023-11-19T00:53:02;98870.41;;;12.33;70.69
62833;BME280;48891;49.220;6.920;2023-11-19T00:55:28;98863.97;;;12.38;70.45
62833;BME280;48891;49.220;6.920;2023-11-19T00:57:53;98850.75;;;12.38;70.67
62833;BME280;48891;49.220;6.920;2023-11-19T01:00:18;98838.59;;;12.35;70.79
62833;BME280;48891;49.220;6.920;2023-11-19T01:02:45;98835.00;;;12.36;70.96
62833;BME280;48891;49.220;6.920;2023-11-19T01:05:10;98836.69;;;12.37;70.59
62833;BME280;48891;49.220;6.920;2023-11-19T01:07:35;98829.59;;;12.38;70.50
62833;BME280;48891;49.220;6.920;2023-11-19T01:10:01;98827.16;;;12.34;70.60
62833;BME280;48891;49.220;6.920;2023-11-19T01:12:26;98800.84;;;12.19;70.67
62833;BME280;48891;49.220;6.920;2023-11-19T01:14:51;98825.19;;;12.38;70.56
62833;BME280;48891;49.220;6.920;2023-11-19T01:17:16;98825.28;;;12.37;70.85
62833;BME280;48891;49.220;6.920;2023-11-19T01:19:42;98821.78;;;12.36;70.78
62833;BME280;48891;49.220;6.920;2023-11-19T01:22:07;98824.44;;;12.36;70.85
62833;BME280;48891;49.220;6.920;2023-11-19T01:24:32;98829.59;;;12.38;70.66
62833;BME280;48891;49.220;6.920;2023-11-19T01:26:57;98834.03;;;12.37;70.83
62833;BME280;48891;49.220;6.920;2023-11-19T01:29:22;98825.56;;;12.32;70.67
62833;BME280;48891;49.220;6.920;2023-11-19T01:31:48;98840.06;;;12.39;70.72
62833;BME280;48891;49.220;6.920;2023-11-19T01:34:13;98836.59;;;12.39;70.74
62833;BME280;48891;49.220;6.920;2023-11-19T01:36:38;98834.03;;;12.37;70.98
62833;BME280;48891;49.220;6.920;2023-11-19T01:39:04;98829.59;;;12.38;70.92
62833;BME280;48891;49.220;6.920;2023-11-19T01:41:29;98828.94;;;12.34;70.64
62833;BME280;48891;49.220;6.920;2023-11-19T01:43:54;98824.31;;;12.38;71.10
62833;BME280;48891;49.220;6.920;2023-11-19T01:46:19;98806.41;;;12.28;70.84
62833;BME280;48891;49.220;6.920;2023-11-19T01:48:46;98814.50;;;12.40;70.74
62833;BME280;48891;49.220;6.920;2023-11-19T01:51:15;98818.28;;;12.35;70.79
62833;BME280;48891;49.220;6.920;2023-11-19T01:53:42;98818.19;;;12.37;71.12
62833;BME280;48891;49.220;6.920;2023-11-19T01:56:09;98823.28;;;12.40;70.69
62833;BME280;48891;49.220;6.920;2023-11-19T01:58:36;98811.97;;;12.38;70.90
62833;BME280;48891;49.220;6.920;2023-11-19T02:01:01;98816.19;;;12.41;70.77
62833;BME280;48891;49.220;6.920;2023-11-19T02:03:26;98820.63;;;12.40;70.78
62833;BME280;48891;49.220;6.920;2023-11-19T02:05:52;98817.16;;;12.40;71.01
62833;BME280;48891;49.220;6.920;2023-11-19T02:08:17;98807.41;;;12.40;71.13
62833;BME280;48891;49.220;6.920;2023-11-19T02:10:42;98810.16;;;12.39;70.79
62833;BME280;48891;49.220;6.920;2023-11-19T02:13:08;98811.88;;;12.40;71.13
62833;BME280;48891;49.220;6.920;2023-11-19T02:15:33;98812.72;;;12.40;71.12
62833;BME280;48891;49.220;6.920;2023-11-19T02:18:20;98808.34;;;12.39;71.16
62833;BME280;48891;49.220;6.920;2023-11-19T02:20:46;98804.88;;;12.39;71.06
62833;BME280;48891;49.220;6.920;2023-11-19T02:23:13;98778.84;;;12.18;71.00
62833;BME280;48891;49.220;6.920;2023-11-19T02:25:39;98812.72;;;12.40;71.02
62833;BME280;48891;49.220;6.920;2023-11-19T02:28:05;98804.88;;;12.39;71.18
62833;BME280;48891;49.220;6.920;2023-11-19T02:30:30;98796.09;;;12.38;71.24
62833;BME280;48891;49.220;6.920;2023-11-19T02:32:56;98796.75;;;12.42;71.21
62833;BME280;48891;49.220;6.920;2023-11-19T02:35:21;98797.22;;;12.34;71.22
62833;BME280;48891;49.220;6.920;2023-11-19T02:37:46;98784.56;;;12.39;71.04
62833;BME280;48891;49.220;6.920;2023-11-19T02:40:12;98777.59;;;12.38;71.30
62833;BME280;48891;49.220;6.920;2023-11-19T02:42:37;98784.47;;;12.41;71.21
62833;BME280;48891;49.220;6.920;2023-11-19T02:45:02;98786.47;;;12.37;71.24
62833;BME280;48891;49.220;6.920;2023-11-19T02:47:28;98781.06;;;12.39;71.21
62833;BME280;48891;49.220;6.920;2023-11-19T02:49:53;98785.34;;;12.41;71.15
62833;BME280;48891;49.220;6.920;2023-11-19T02:52:18;98783.53;;;12.42;71.35
62833;BME280;48891;49.220;6.920;2023-11-19T02:54:43;98793.38;;;12.40;71.47
62833;BME280;48891;49.220;6.920;2023-11-19T02:57:09;98782.78;;;12.40;71.20
62833;BME280;48891;49.220;6.920;2023-11-19T02:59:38;98796.00;;;12.40;71.18
62833;BME280;48891;49.220;6.920;2023-11-19T03:02:07;98779.28;;;12.39;71.38
62833;BME280;48891;49.220;6.920;2023-11-19T03:04:33;98783.53;;;12.42;71.32
62833;BME280;48891;49.220;6.920;2023-11-19T03:06:58;98776.53;;;12.41;71.21
62833;BME280;48891;49.220;6.920;2023-11-19T03:09:24;98780.97;;;12.40;71.29
62833;BME280;48891;49.220;6.920;2023-11-19T03:11:49;98786.28;;;12.40;71.40
62833;BME280;48891;49.220;6.920;2023-11-19T03:14:14;98781.91;;;12.39;71.62
62833;BME280;48891;49.220;6.920;2023-11-19T03:16:39;98776.63;;;12.39;71.53
62833;BME280;48891;49.220;6.920;2023-11-19T03:19:04;98786.28;;;12.40;71.69
62833;BME280;48891;49.220;6.920;2023-11-19T03:21:30;98757.22;;;12.26;71.74
62833;BME280;48891;49.220;6.920;2023-11-19T03:23:55;98763.16;;;12.29;71.81
62833;BME280;48891;49.220;6.920;2023-11-19T03:26:21;98764.28;;;12.40;71.72
62833;BME280;48891;49.220;6.920;2023-11-19T03:28:46;98775.69;;;12.40;71.28
62833;BME280;48891;49.220;6.920;2023-11-19T03:31:11;98772.13;;;12.41;71.61
62833;BME280;48891;49.220;6.920;2023-11-19T03:33:36;98769.56;;;12.40;71.75
62833;BME280;48891;49.220;6.920;2023-11-19T03:36:02;98780.88;;;12.42;71.87
62833;BME280;48891;49.220;6.920;2023-11-19T03:38:27;98759.84;;;12.40;71.93
62833;BME280;48891;49.220;6.920;2023-11-19T03:40:52;98769.47;;;12.41;71.64
62833;BME280;48891;49.220;6.920;2023-11-19T03:43:17;98770.31;;;12.42;71.73
62833;BME280;48891;49.220;6.920;2023-11-19T03:45:43;98772.13;;;12.41;71.93
62833;BME280;48891;49.220;6.920;2023-11-19T03:48:08;98759.84;;;12.40;71.89
62833;BME280;48891;49.220;6.920;2023-11-19T03:50:33;98766.84;;;12.41;72.05
62833;BME280;48891;49.220;6.920;2023-11-19T03:52:58;98764.28;;;12.40;72.06
62833;BME280;48891;49.220;6.920;2023-11-19T03:55:24;98765.13;;;12.40;71.81
62833;BME280;48891;49.220;6.920;2023-11-19T03:57:49;98762.47;;;12.40;71.80
62833;BME280;48891;49.220;6.920;2023-11-19T04:00:14;98769.34;;;12.43;72.11
62833;BME280;48891;49.220;6.920;2023-11-19T04:02:40;98783.22;;;12.46;71.96
62833;BME280;48891;49.220;6.920;2023-11-19T04:05:06;98761.00;;;12.36;72.03
62833;BME280;48891;49.220;6.920;2023-11-19T04:07:32;98777.09;;;12.46;71.88
62833;BME280;48891;49.220;6.920;2023-11-19T04:09:57;98772.63;;;12.46;71.81
62833;BME280;48891;49.220;6.920;2023-11-19T04:12:22;98779.72;;;12.46;72.22
62833;BME280;48891;49.220;6.920;2023-11-19T04:14:47;98781.63;;;12.44;71.85
62833;BME280;48891;49.220;6.920;2023-11-19T04:17:13;98771.91;;;12.44;71.81
62833;BME280;48891;49.220;6.920;2023-11-19T04:19:38;98763.97;;;12.44;71.96
62833;BME280;48891;49.220;6.920;2023-11-19T04:22:03;98768.31;;;12.45;72.09
62833;BME280;48891;49.220;6.920;2023-11-19T04:24:28;98762.19;;;12.45;71.94
62833;BME280;48891;49.220;6.920;2023-11-19T04:26:54;98758.78;;;12.43;72.05
62833;BME280;48891;49.220;6.920;2023-11-19T04:29:19;98757.09;;;12.42;72.12
62833;BME280;48891;49.220;6.920;2023-11-19T04:31:45;98770.13;;;12.45;72.39
62833;BME280;48891;49.220;6.920;2023-11-19T04:34:10;98756.03;;;12.44;72.22
62833;BME280;48891;49.220;6.920;2023-11-19T04:36:35;98762.19;;;12.45;72.35
62833;BME280;48891;49.220;6.920;2023-11-19T04:39:01;98758.69;;;12.44;72.33
62833;BME280;48891;49.220;6.920;2023-11-19T04:41:26;98757.19;;;12.40;72.42
62833;BME280;48891;49.220;6.920;2023-11-19T04:43:52;98745.41;;;12.31;72.26
62833;BME280;48891;49.220;6.920;2023-11-19T04:46:17;98770.97;;;12.45;72.19
62833;BME280;48891;49.220;6.920;2023-11-19T04:48:42;98770.13;;;12.45;72.48
62833;BME280;48891;49.220;6.920;2023-11-19T04:51:07;98761.22;;;12.46;72.16
62833;BME280;48891;49.220;6.920;2023-11-19T04:53:33;98766.41;;;12.47;72.30
62833;BME280;48891;49.220;6.920;2023-11-19T04:55:58;98770.97;;;12.45;72.15
62833;BME280;48891;49.220;6.920;2023-11-19T04:58:23;98770.00;;;12.46;72.46
62833;BME280;48891;49.220;6.920;2023-11-19T05:00:48;98769.25;;;12.44;72.28
62833;BME280;48891;49.220;6.920;2023-11-19T05:03:14;98748.16;;;12.30;72.54
62833;BME280;48891;49.220;6.920;2023-11-19T05:05:39;98780.56;;;12.46;72.50
62833;BME280;48891;49.220;6.920;2023-11-19T05:08:04;98770.00;;;12.46;72.53
62833;BME280;48891;49.220;6.920;2023-11-19T05:10:29;98772.63;;;12.46;72.58
62833;BME280;48891;49.220;6.920;2023-11-19T05:12:54;98771.69;;;12.47;72.67
62833;BME280;48891;49.220;6.920;2023-11-19T05:15:20;98773.41;;;12.48;72.48
62833;BME280;48891;49.220;6.920;2023-11-19T05:17:45;98777.00;;;12.47;72.75
62833;BME280;48891;49.220;6.920;2023-11-19T05:20:10;98768.13;;;12.48;72.52
62833;BME280;48891;49.220;6.920;2023-11-19T05:22:35;98760.19;;;12.48;72.55
62833;BME280;48891;49.220;6.920;2023-11-19T05:25:01;98766.41;;;12.47;72.42
62833;BME280;48891;49.220;6.920;2023-11-19T05:27:26;98766.41;;;12.47;72.60
62833;BME280;48891;49.220;6.920;2023-11-19T05:29:51;98764.72;;;12.46;72.58
62833;BME280;48891;49.220;6.920;2023-11-19T05:32:16;98766.41;;;12.47;72.66
62833;BME280;48891;49.220;6.920;2023-11-19T05:34:41;98769.06;;;12.47;72.68
62833;BME280;48891;49.220;6.920;2023-11-19T05:37:07;98771.59;;;12.49;72.67
62833;BME280;48891;49.220;6.920;2023-11-19T05:39:32;98771.69;;;12.47;72.88
62833;BME280;48891;49.220;6.920;2023-11-19T05:41:57;98767.25;;;12.48;72.93
62833;BME280;48891;49.220;6.920;2023-11-19T05:44:22;98770.78;;;12.48;73.00
62833;BME280;48891;49.220;6.920;2023-11-19T05:46:48;98761.97;;;12.48;72.67
62833;BME280;48891;49.220;6.920;2023-11-19T05:49:13;98761.97;;;12.48;72.49
62833;BME280;48891;49.220;6.920;2023-11-19T05:51:39;98768.13;;;12.48;72.70
62833;BME280;48891;49.220;6.920;2023-11-19T05:54:06;98773.41;;;12.48;73.05
62833;BME280;48891;49.220;6.920;2023-11-19T05:56:32;98757.94;;;12.42;72.63
62833;BME280;48891;49.220;6.920;2023-11-19T05:58:57;98764.63;;;12.48;72.87
62833;BME280;48891;49.220;6.920;2023-11-19T06:01:22;98768.13;;;12.48;72.78
62833;BME280;48891;49.220;6.920;2023-11-19T06:03:47;98763.97;;;12.44;72.88
62833;BME280;48891;49.220;6.920;2023-11-19T06:06:12;98774.25;;;12.49;73.05
62833;BME280;48891;49.220;6.920;2023-11-19T06:08:38;98772.53;;;12.48;73.12
62833;BME280;48891;49.220;6.920;2023-11-19T06:11:03;98778.69;;;12.48;72.95
62833;BME280;48891;49.220;6.920;2023-11-19T06:13:28;98779.53;;;12.49;72.96
62833;BME280;48891;49.220;6.920;2023-11-19T06:15:54;98777.94;;;12.46;72.86
62833;BME280;48891;49.220;6.920;2023-11-19T06:18:19;98776.81;;;12.50;73.29
62833;BME280;48891;49.220;6.920;2023-11-19T06:20:44;98785.66;;;12.49;73.17
62833;BME280;48891;49.220;6.920;2023-11-19T06:23:09;98782.94;;;12.51;73.26
62833;BME280;48891;49.220;6.920;2023-11-19T06:25:35;98751.53;;;12.32;73.26
62833;BME280;48891;49.220;6.920;2023-11-19T06:28:00;98790.88;;;12.51;73.22
62833;BME280;48891;49.220;6.920;2023-11-19T06:30:25;98797.09;;;12.50;73.37
62833;BME280;48891;49.220;6.920;2023-11-19T06:32:51;98793.59;;;12.49;73.26
62833;BME280;48891;49.220;6.920;2023-11-19T06:35:16;98810.22;;;12.51;73.17
62833;BME280;48891;49.220;6.920;2023-11-19T06:37:42;98811.16;;;12.50;73.54
62833;BME280;48891;49.220;6.920;2023-11-19T06:40:07;98819.09;;;12.50;73.33
62833;BME280;48891;49.220;6.920;2023-11-19T06:42:33;98820.88;;;12.50;73.41
62833;BME280;48891;49.220;6.920;2023-11-19T06:44:58;98813.81;;;12.50;73.24
62833;BME280;48891;49.220;6.920;2023-11-19T06:47:27;98817.22;;;12.52;73.19
62833;BME280;48891;49.220;6.920;2023-11-19T06:49:52;98828.81;;;12.50;73.40
62833;BME280;48891;49.220;6.920;2023-11-19T06:52:18;98833.16;;;12.51;73.56
62833;BME280;48891;49.220;6.920;2023-11-19T06:54:43;98824.31;;;12.52;73.23
62833;BME280;48891;49.220;6.920;2023-11-19T06:57:08;98826.81;;;12.53;73.69
62833;BME280;48891;49.220;6.920;2023-11-19T06:59:34;98814.59;;;12.38;73.50
62833;BME280;48891;49.220;6.920;2023-11-19T07:01:59;98837.53;;;12.52;73.35
62833;BME280;48891;49.220;6.920;2023-11-19T07:04:24;98828.81;;;12.50;73.70
62833;BME280;48891;49.220;6.920;2023-11-19T07:06:49;98831.38;;;12.51;73.46
62833;BME280;48891;49.220;6.920;2023-11-19T07:09:15;98849.97;;;12.50;73.45
62833;BME280;48891;49.220;6.920;2023-11-19T07:11:41;98846.28;;;12.52;73.84
62833;BME280;48891;49.220;6.920;2023-11-19T07:14:07;98838.47;;;12.51;73.83
62833;BME280;48891;49.220;6.920;2023-11-19T07:16:33;98841.84;;;12.53;73.92
62833;BME280;48891;49.220;6.920;2023-11-19T07:18:59;98838.25;;;12.54;73.97
62833;BME280;48891;49.220;6.920;2023-11-19T07:21:24;98848.94;;;12.52;74.07
62833;BME280;48891;49.220;6.920;2023-11-19T07:23:49;98846.38;;;12.51;73.93
62833;BME280;48891;49.220;6.920;2023-11-19T07:26:14;98841.84;;;12.53;73.89
62833;BME280;48891;49.220;6.920;2023-11-19T07:28:40;98861.09;;;12.55;74.06
62833;BME280;48891;49.220;6.920;2023-11-19T07:31:05;98856.78;;;12.54;74.03
62833;BME280;48891;49.220;6.920;2023-11-19T07:33:30;98851.41;;;12.56;73.81
62833;BME280;48891;49.220;6.920;2023-11-19T07:35:55;98854.03;;;12.56;74.03
62833;BME280;48891;49.220;6.920;2023-11-19T07:38:21;98847.03;;;12.54;74.14
62833;BME280;48891;49.220;6.920;2023-11-19T07:40:46;98851.41;;;12.56;74.11
62833;BME280;48891;49.220;6.920;2023-11-19T07:43:11;98854.78;;;12.58;74.17
62833;BME280;48891;49.220;6.920;2023-11-19T07:45:36;98856.69;;;12.56;74.02
62833;BME280;48891;49.220;6.920;2023-11-19T07:48:02;98860.16;;;12.56;74.10
62833;BME280;48891;49.220;6.920;2023-11-19T07:50:27;98862.81;;;12.56;74.22
62833;BME280;48891;49.220;6.920;2023-11-19T07:52:53;98857.63;;;12.54;74.37
62833;BME280;48891;49.220;6.920;2023-11-19T07:55:18;98861.00;;;12.57;74.08
62833;BME280;48891;49.220;6.920;2023-11-19T07:57:43;98869.81;;;12.57;74.06
62833;BME280;48891;49.220;6.920;2023-11-19T08:00:09;98873.28;;;12.58;74.33
62833;BME280;48891;49.220;6.920;2023-11-19T08:02:34;98868.00;;;12.58;74.20
62833;BME280;48891;49.220;6.920;2023-11-19T08:04:59;98868.94;;;12.57;74.13
62833;BME280;48891;49.220;6.920;2023-11-19T08:07:25;98868.84;;;12.58;74.44
62833;BME280;48891;49.220;6.920;2023-11-19T08:09:50;98864.53;;;12.57;74.19
62833;BME280;48891;49.220;6.920;2023-11-19T08:12:15;98876.78;;;12.58;74.42
62833;BME280;48891;49.220;6.920;2023-11-19T08:14:40;98872.31;;;12.59;74.30
62833;BME280;48891;49.220;6.920;2023-11-19T08:17:06;98870.56;;;12.59;74.46
62833;BME280;48891;49.220;6.920;2023-11-19T08:19:31;98882.81;;;12.60;74.36
62833;BME280;48891;49.220;6.920;2023-11-19T08:21:56;98885.56;;;12.59;74.49
62833;BME280;48891;49.220;6.920;2023-11-19T08:24:21;98893.47;;;12.59;74.24
62833;BME280;48891;49.220;6.920;2023-11-19T08:26:47;98897.84;;;12.60;74.39
62833;BME280;48891;49.220;6.920;2023-11-19T08:29:12;98888.19;;;12.59;74.23
62833;BME280;48891;49.220;6.920;2023-11-19T08:31:37;98889.91;;;12.60;74.28
62833;BME280;48891;49.220;6.920;2023-11-19T08:34:02;98893.28;;;12.62;74.23
62833;BME280;48891;49.220;6.920;2023-11-19T08:36:28;98889.81;;;12.61;74.45
62833;BME280;48891;49.220;6.920;2023-11-19T08:38:53;98882.81;;;12.60;74.27
62833;BME280;48891;49.220;6.920;2023-11-19T08:41:19;98877.06;;;12.53;74.61
62833;BME280;48891;49.220;6.920;2023-11-19T08:43:44;98878.41;;;12.61;74.60
62833;BME280;48891;49.220;6.920;2023-11-19T08:46:11;98895.00;;;12.63;74.32
62833;BME280;48891;49.220;6.920;2023-11-19T08:48:36;98887.91;;;12.63;74.95
62833;BME280;48891;49.220;6.920;2023-11-19T08:51:02;98891.63;;;12.61;75.24
62833;BME280;48891;49.220;6.920;2023-11-19T08:53:27;98894.91;;;12.64;75.25
62833;BME280;48891;49.220;6.920;2023-11-19T08:55:52;98895.75;;;12.65;74.92
62833;BME280;48891;49.220;6.920;2023-11-19T08:58:17;98903.59;;;12.66;75.18
62833;BME280;48891;49.220;6.920;2023-11-19T09:00:43;98883.22;;;12.54;74.96
62833;BME280;48891;49.220;6.920;2023-11-19T09:03:08;98904.44;;;12.67;75.11
62833;BME280;48891;49.220;6.920;2023-11-19T09:05:33;98890.28;;;12.68;74.74
62833;BME280;48891;49.220;6.920;2023-11-19T09:07:58;98899.91;;;12.69;74.84
62833;BME280;48891;49.220;6.920;2023-11-19T09:10:24;98897.25;;;12.69;75.13
62833;BME280;48891;49.220;6.920;2023-11-19T09:12:49;98896.31;;;12.70;74.87
62833;BME280;48891;49.220;6.920;2023-11-19T09:15:14;98905.19;;;12.69;74.80
62833;BME280;48891;49.220;6.920;2023-11-19T09:17:39;98904.16;;;12.71;75.21
62833;BME280;48891;49.220;6.920;2023-11-19T09:20:05;98900.72;;;12.69;75.04
62833;BME280;48891;49.220;6.920;2023-11-19T09:22:30;98899.81;;;12.70;74.84
62833;BME280;48891;49.220;6.920;2023-11-19T09:24:56;98901.59;;;12.70;74.98
62833;BME280;48891;49.220;6.920;2023-11-19T09:27:21;98894.59;;;12.69;75.08
62833;BME280;48891;49.220;6.920;2023-11-19T09:29:46;98901.59;;;12.70;75.20
62833;BME280;48891;49.220;6.920;2023-11-19T09:32:11;98905.00;;;12.72;75.00
62833;BME280;48891;49.220;6.920;2023-11-19T09:34:36;98903.19;;;12.72;75.39
62833;BME280;48891;49.220;6.920;2023-11-19T09:37:02;98895.16;;;12.74;75.37
62833;BME280;48891;49.220;6.920;2023-11-19T09:39:27;98881.88;;;12.61;75.46
62833;BME280;48891;49.220;6.920;2023-11-19T09:41:52;98910.84;;;12.77;75.42
62833;BME280;48891;49.220;6.920;2023-11-19T09:44:18;98910.75;;;12.79;75.55
62833;BME280;48891;49.220;6.920;2023-11-19T09:46:44;98913.31;;;12.80;75.65
62833;BME280;48891;49.220;6.920;2023-11-19T09:49:10;98899.94;;;12.82;75.62
62833;BME280;48891;49.220;6.920;2023-11-19T09:51:36;98882.22;;;12.69;75.50
62833;BME280;48891;49.220;6.920;2023-11-19T09:54:02;98900.50;;;12.87;75.68
62833;BME280;48891;49.220;6.920;2023-11-19T09:56:30;98907.50;;;12.88;75.67
62833;BME280;48891;49.220;6.920;2023-11-19T09:58:56;98899.47;;;12.89;75.46
62833;BME280;48891;49.220;6.920;2023-11-19T10:01:21;98904.69;;;12.91;75.25
62833;BME280;48891;49.220;6.920;2023-11-19T10:03:50;98900.03;;;12.95;75.72
62833;BME280;48891;49.220;6.920;2023-11-19T10:06:16;98903.31;;;12.98;75.09
62833;BME280;48891;49.220;6.920;2023-11-19T10:08:41;98896.03;;;13.02;75.34
62833;BME280;48891;49.220;6.920;2023-11-19T10:11:07;98862.44;;;12.89;75.27
62833;BME280;48891;49.220;6.920;2023-11-19T10:13:36;98904.31;;;13.10;75.35
62833;BME280;48891;49.220;6.920;2023-11-19T10:16:04;98890.88;;;13.13;75.24
62833;BME280;48891;49.220;6.920;2023-11-19T10:18:29;98895.97;;;13.16;75.05
62833;BME280;48891;49.220;6.920;2023-11-19T10:20:54;98879.09;;;13.04;74.83
62833;BME280;48891;49.220;6.920;2023-11-19T10:23:20;98891.97;;;13.23;74.79
62833;BME280;48891;49.220;6.920;2023-11-19T10:25:45;98892.91;;;13.22;74.79
62833;BME280;48891;49.220;6.920;2023-11-19T10:28:10;98894.53;;;13.25;74.88
62833;BME280;48891;49.220;6.920;2023-11-19T10:30:36;98889.88;;;13.28;74.88
62833;BME280;48891;49.220;6.920;2023-11-19T10:35:33;98904.34;;;13.37;74.68
62833;BME280;48891;49.220;6.920;2023-11-19T10:38:20;98891.84;;;13.39;74.51
62833;BME280;48891;49.220;6.920;2023-11-19T10:40:44;98872.22;;;13.42;74.35
62833;BME280;48891;49.220;6.920;2023-11-19T10:43:10;98855.38;;;13.30;74.61
62833;BME280;48891;49.220;6.920;2023-11-19T10:45:36;98848.25;;;13.30;74.33
62833;BME280;48891;49.220;6.920;2023-11-19T10:48:05;98854.50;;;13.29;74.31
62833;BME280;48891;49.220;6.920;2023-11-19T10:50:30;98882.63;;;13.45;74.08
62833;BME280;48891;49.220;6.920;2023-11-19T10:52:56;98861.00;;;13.38;74.37
62833;BME280;48891;49.220;6.920;2023-11-19T10:55:27;98872.03;;;13.45;74.42
62833;BME280;48891;49.220;6.920;2023-11-19T10:57:52;98852.31;;;13.36;74.22
62833;BME280;48891;49.220;6.920;2023-11-19T11:00:22;98872.78;;;13.47;74.40
62833;BME280;48891;49.220;6.920;2023-11-19T11:02:50;98868.34;;;13.47;73.93
62833;BME280;48891;49.220;6.920;2023-11-19T11:05:21;98860.50;;;13.46;74.28
62833;BME280;48891;49.220;6.920;2023-11-19T11:07:47;98870.22;;;13.45;74.19
62833;BME280;48891;49.220;6.920;2023-11-19T11:10:14;98864.41;;;13.40;74.40
62833;BME280;48891;49.220;6.920;2023-11-19T11:12:41;98870.56;;;13.41;74.05
62833;BME280;48891;49.220;6.920;2023-11-19T11:15:07;98854.66;;;13.41;74.09
62833;BME280;48891;49.220;6.920;2023-11-19T11:17:33;98867.91;;;13.41;74.43
62833;BME280;48891;49.220;6.920;2023-11-19T11:19:59;98858.16;;;13.41;74.22
62833;BME280;48891;49.220;6.920;2023-11-19T11:22:25;98855.59;;;13.40;74.19
62833;BME280;48891;49.220;6.920;2023-11-19T11:25:27;98855.72;;;13.38;74.18
62833;BME280;48891;49.220;6.920;2023-11-19T11:30:49;98866.41;;;13.37;74.45
62833;BME280;48891;49.220;6.920;2023-11-19T11:33:41;98855.06;;;13.35;74.35
62833;BME280;48891;49.220;6.920;2023-11-19T11:36:20;98850.38;;;13.25;74.38
62833;BME280;48891;49.220;6.920;2023-11-19T11:38:48;98861.34;;;13.34;74.30
62833;BME280;48891;49.220;6.920;2023-11-19T11:41:21;98861.50;;;13.30;74.38
62833;BME280;48891;49.220;6.920;2023-11-19T11:49:01;98858.84;;;13.30;74.49
62833;BME280;48891;49.220;6.920;2023-11-19T11:54:10;98844.13;;;13.26;74.29
62833;BME280;48891;49.220;6.920;2023-11-19T11:56:39;98843.16;;;13.27;74.47
62833;BME280;48891;49.220;6.920;2023-11-19T11:59:19;98826.00;;;13.20;74.51
62833;BME280;48891;49.220;6.920;2023-11-19T12:01:59;98837.88;;;13.27;74.38
62833;BME280;48891;49.220;6.920;2023-11-19T12:04:28;98830.03;;;13.26;74.69
62833;BME280;48891;49.220;6.920;2023-11-19T12:07:12;98827.28;;;13.27;74.63
62833;BME280;48891;49.220;6.920;2023-11-19T12:09:41;98827.38;;;13.26;74.93
62833;BME280;48891;49.220;6.920;2023-11-19T12:12:14;98817.66;;;13.26;74.85
62833;BME280;48891;49.220;6.920;2023-11-19T12:20:04;98820.22;;;13.28;75.58
62833;BME280;48891;49.220;6.920;2023-11-19T12:22:30;98821.25;;;13.25;75.52
62833;BME280;48891;49.220;6.920;2023-11-19T12:24:56;98793.78;;;13.14;75.68
62833;BME280;48891;49.220;6.920;2023-11-19T12:27:21;98812.47;;;13.25;75.66
62833;BME280;48891;49.220;6.920;2023-11-19T12:29:47;98813.31;;;13.25;75.73
62833;BME280;48891;49.220;6.920;2023-11-19T12:32:12;98806.34;;;13.24;75.72
62833;BME280;48891;49.220;6.920;2023-11-19T12:34:37;98805.34;;;13.25;75.49
62833;BME280;48891;49.220;6.920;2023-11-19T12:37:05;98796.69;;;13.23;75.55
62833;BME280;48891;49.220;6.920;2023-11-19T12:39:31;98798.38;;;13.24;75.75
62833;BME280;48891;49.220;6.920;2023-11-19T12:41:56;98782.59;;;13.23;75.83
62833;BME280;48891;49.220;6.920;2023-11-19T12:44:21;98786.00;;;13.25;75.52
62833;BME280;48891;49.220;6.920;2023-11-19T12:47:04;98790.44;;;13.24;75.63
62833;BME280;48891;49.220;6.920;2023-11-19T12:49:30;98773.03;;;13.07;75.52
62833;BME280;48891;49.220;6.920;2023-11-19T12:51:55;98776.97;;;13.15;75.81
62833;BME280;48891;49.220;6.920;2023-11-19T12:54:34;98791.38;;;13.23;75.72
62833;BME280;48891;49.220;6.920;2023-11-19T12:57:00;98773.59;;;13.13;75.83
62833;BME280;48891;49.220;6.920;2023-11-19T12:59:25;98798.38;;;13.24;75.66
62833;BME280;48891;49.220;6.920;2023-11-19T13:01:59;98784.47;;;13.21;75.58
62833;BME280;48891;49.220;6.920;2023-11-19T13:04:31;98759.28;;;13.02;75.58
62833;BME280;48891;49.220;6.920;2023-11-19T13:07:01;98788.63;;;13.25;75.87
62833;BME280;48891;49.220;6.920;2023-11-19T13:09:27;98786.00;;;13.25;75.87
62833;BME280;48891;49.220;6.920;2023-11-19T13:11:53;98789.47;;;13.25;75.62
62833;BME280;48891;49.220;6.920;2023-11-19T13:14:19;98779.97;;;13.23;75.74